createdAt,value
2023-05-09T00:01:58.474Z,5.7
2023-05-09T00:03:57.547Z,5.5
2023-05-09T00:05:57.138Z,4.8
2023-05-09T00:07:57.258Z,5
2023-05-09T00:09:57.263Z,5.1
2023-05-09T00:11:56.860Z,5.3
2023-05-09T00:13:56.814Z,6.6
2023-05-09T00:15:56.712Z,6.1
2023-05-09T00:17:56.698Z,5.9
2023-05-09T00:19:56.821Z,8.9
2023-05-09T00:21:56.475Z,8
2023-05-09T00:23:56.561Z,8.1
2023-05-09T00:25:56.392Z,7.2
2023-05-09T00:27:56.265Z,8.6
2023-05-09T00:29:56.178Z,7.7
2023-05-09T00:31:56.543Z,8.3
2023-05-09T00:33:56.071Z,7.5
2023-05-09T00:35:55.962Z,7.4
2023-05-09T00:37:55.907Z,7.1
2023-05-09T00:39:56.004Z,7.1
2023-05-09T00:41:56.217Z,6.2
2023-05-09T00:43:55.739Z,5.8
2023-05-09T00:45:55.813Z,6.1
2023-05-09T00:47:55.776Z,6.3
2023-05-09T00:49:57.429Z,6.6
2023-05-09T00:51:56.317Z,6.5
2023-05-09T00:53:55.298Z,5.6
2023-05-09T00:55:56.604Z,5.9
2023-05-09T00:57:55.232Z,5.3
2023-05-09T00:59:55.111Z,5.7
2023-05-09T01:01:54.975Z,6
2023-05-09T01:03:55.444Z,7.2
2023-05-09T01:06:02.821Z,5.8
2023-05-09T01:08:02.544Z,5.7
2023-05-09T01:10:01.973Z,7.7
2023-05-09T01:12:05.878Z,12.6
2023-05-09T01:14:07.780Z,6.9
2023-05-09T01:16:00.434Z,6.4
2023-05-09T01:18:00.624Z,6
2023-05-09T01:20:02.417Z,6
2023-05-09T01:21:58.177Z,6
2023-05-09T01:24:18.774Z,6.5
2023-05-09T01:26:01.343Z,6.1
2023-05-09T01:28:04.991Z,6
2023-05-09T01:29:57.382Z,6.7
2023-05-09T01:31:55.850Z,5.7
2023-05-09T01:33:59.130Z,5.1
2023-05-09T01:36:07.584Z,6
2023-05-09T01:37:56.048Z,5.9
2023-05-09T01:39:58.471Z,5.2
2023-05-09T01:41:57.886Z,6.1
2023-05-09T01:43:55.255Z,5
2023-05-09T01:45:54.622Z,5.4
2023-05-09T01:47:55.582Z,7
2023-05-09T01:49:55.923Z,12.9
2023-05-09T01:51:54.325Z,16.1
2023-05-09T01:53:54.877Z,16.3
2023-05-09T01:55:54.158Z,13.8
2023-05-09T01:57:55.079Z,11.8
2023-05-09T01:59:54.621Z,10.3
2023-05-09T02:01:53.105Z,9.7
2023-05-09T02:03:55.220Z,8.6
2023-05-09T02:05:54.366Z,6.8
2023-05-09T02:07:54.288Z,5.7
2023-05-09T02:09:55.738Z,5.3
2023-05-09T02:11:53.440Z,5.5
2023-05-09T02:13:52.436Z,4.9
2023-05-09T02:15:53.405Z,5.3
2023-05-09T02:17:52.602Z,5.2
2023-05-09T02:19:52.061Z,6.6
2023-05-09T02:21:52.416Z,7.2
2023-05-09T02:23:52.082Z,9.3
2023-05-09T02:25:52.310Z,8.5
2023-05-09T02:27:54.015Z,7.5
2023-05-09T02:29:55.925Z,8.4
2023-05-09T02:31:53.232Z,6.9
2023-05-09T02:33:52.757Z,6.5
2023-05-09T02:35:52.161Z,7.8
2023-05-09T02:37:51.869Z,7.6
2023-05-09T02:39:51.708Z,7.1
2023-05-09T02:41:52.427Z,6.4
2023-05-09T02:43:51.381Z,5.1
2023-05-09T02:45:51.213Z,5.2
2023-05-09T02:47:51.177Z,5.2
2023-05-09T02:49:51.067Z,4.7
2023-05-09T02:51:51.110Z,4.7
2023-05-09T02:53:51.136Z,4.7
2023-05-09T02:55:51.216Z,4.4
2023-05-09T02:57:58.917Z,4.6
2023-05-09T02:59:50.921Z,4.6
2023-05-09T03:01:51.046Z,4.6
2023-05-09T03:03:51.552Z,4.6
2023-05-09T03:05:50.731Z,4.2
2023-05-09T03:07:50.978Z,4.6
2023-05-09T03:09:50.752Z,4.1
2023-05-09T03:11:50.570Z,3.8
2023-05-09T03:13:50.569Z,3.6
2023-05-09T03:15:51.070Z,3.5
2023-05-09T03:17:50.591Z,3.5
2023-05-09T03:19:50.648Z,3.4
2023-05-09T03:21:51.148Z,3.4
2023-05-09T03:23:50.672Z,3.6
2023-05-09T03:25:51.197Z,3.6
2023-05-09T03:27:50.921Z,3.9
2023-05-09T03:29:51.580Z,5.2
2023-05-09T03:31:51.070Z,5.2
2023-05-09T03:33:50.911Z,4.8
2023-05-09T03:35:51.477Z,4.5
2023-05-09T03:37:51.803Z,4.1
2023-05-09T03:39:51.165Z,4
2023-05-09T03:41:51.210Z,3.9
2023-05-09T03:43:51.170Z,4.2
2023-05-09T03:45:51.669Z,3.7
2023-05-09T03:47:52.514Z,3.8
2023-05-09T03:49:53.601Z,3.6
2023-05-09T03:51:52.047Z,4.1
2023-05-09T03:53:52.009Z,3.7
2023-05-09T03:55:52.052Z,3.3
2023-05-09T03:57:52.040Z,3.2
2023-05-09T03:59:52.416Z,3.3
2023-05-09T04:01:52.602Z,3.9
2023-05-09T04:03:52.704Z,3.3
2023-05-09T04:06:04.555Z,3
2023-05-09T04:07:53.569Z,4.7
2023-05-09T04:09:54.281Z,3.1
2023-05-09T04:11:53.860Z,3.6
2023-05-09T04:14:00.001Z,4
2023-05-09T04:15:54.188Z,3.3
2023-05-09T04:17:54.643Z,3.8
2023-05-09T04:19:55.169Z,3.7
2023-05-09T04:21:55.250Z,4
2023-05-09T04:24:00.455Z,3.4
2023-05-09T04:25:56.063Z,3.6
2023-05-09T04:27:56.410Z,3.5
2023-05-09T04:29:57.073Z,3.3
2023-05-09T04:31:59.024Z,3.4
2023-05-09T04:33:58.834Z,3.9
2023-05-09T04:35:58.712Z,3.9
2023-05-09T04:37:58.916Z,3.7
2023-05-09T04:40:04.731Z,4.1
2023-05-09T04:41:59.589Z,3.6
2023-05-09T04:44:00.771Z,3.9
2023-05-09T04:46:00.590Z,3.8
2023-05-09T04:48:01.214Z,3.5
2023-05-09T04:50:01.608Z,3.1
2023-05-09T04:52:02.644Z,3.4
2023-05-09T04:54:04.966Z,3.1
2023-05-09T04:56:04.260Z,2.9
2023-05-09T04:58:03.714Z,2.9
2023-05-09T05:00:05.201Z,2.9
2023-05-09T05:02:05.027Z,2.7
2023-05-09T05:04:05.512Z,2.9
2023-05-09T05:06:06.898Z,2.7
2023-05-09T05:08:08.843Z,2.5
2023-05-09T05:10:08.814Z,2.6
2023-05-09T05:12:09.596Z,2.6
2023-05-09T05:14:08.454Z,2.7
2023-05-09T05:16:09.566Z,2.8
2023-05-09T05:18:09.448Z,2.5
2023-05-09T05:20:12.637Z,2.6
2023-05-09T05:22:12.512Z,2.9
2023-05-09T05:24:11.448Z,3.3
2023-05-09T05:26:12.255Z,3.2
2023-05-09T05:28:12.773Z,3.5
2023-05-09T05:30:14.405Z,2.9
2023-05-09T05:32:13.885Z,2.9
2023-05-09T05:34:14.542Z,3.7
2023-05-09T05:36:15.830Z,2.7
2023-05-09T05:38:16.164Z,2.2
2023-05-09T05:40:18.343Z,2.4
2023-05-09T05:42:17.121Z,2.1
2023-05-09T05:44:17.684Z,2
2023-05-09T05:46:18.766Z,2
2023-05-09T05:48:19.777Z,1.9
2023-05-09T05:50:19.361Z,1.9
2023-05-09T05:52:19.780Z,2.3
2023-05-09T05:54:21.079Z,2.1
2023-05-09T05:56:22.461Z,2
2023-05-09T05:58:21.646Z,2.2
2023-05-09T06:00:28.006Z,2.1
2023-05-09T06:02:23.670Z,2
2023-05-09T06:04:23.579Z,1.7
2023-05-09T06:06:25.496Z,1.8
2023-05-09T06:08:24.966Z,2
2023-05-09T06:10:25.575Z,1.7
2023-05-09T06:12:27.880Z,1.9
2023-05-09T06:14:27.316Z,1.6
2023-05-09T06:16:27.765Z,1.9
2023-05-09T06:18:29.265Z,2
2023-05-09T06:20:28.554Z,1.9
2023-05-09T06:22:29.171Z,1.8
2023-05-09T06:24:35.906Z,1.8
2023-05-09T06:26:30.785Z,1.7
2023-05-09T06:28:31.548Z,1.5
2023-05-09T06:30:31.654Z,1.6
2023-05-09T06:32:33.507Z,1.7
2023-05-09T06:34:33.325Z,1.8
2023-05-09T06:36:34.568Z,1.8
2023-05-09T06:38:34.384Z,1.7
2023-05-09T06:40:35.193Z,1.7
2023-05-09T06:42:35.542Z,1.8
2023-05-09T06:44:36.290Z,1.9
2023-05-09T06:46:36.935Z,1.8
2023-05-09T06:48:37.442Z,1.8
2023-05-09T06:50:38.179Z,1.8
2023-05-09T06:52:38.763Z,1.6
2023-05-09T06:54:39.423Z,1.4
2023-05-09T06:56:40.114Z,1.7
2023-05-09T06:58:40.886Z,1.4
2023-05-09T07:00:41.330Z,1.6
2023-05-09T07:02:42.467Z,2
2023-05-09T07:04:42.692Z,1.7
2023-05-09T07:06:43.210Z,1.6
2023-05-09T07:08:43.987Z,1.8
2023-05-09T07:10:44.518Z,1.8
2023-05-09T07:12:45.136Z,1.6
2023-05-09T07:14:45.640Z,1.3
2023-05-09T07:16:46.371Z,1.3
2023-05-09T07:18:47.029Z,1.7
2023-05-09T07:20:47.513Z,1.5
2023-05-09T07:22:48.062Z,1.9
2023-05-09T07:24:48.569Z,1.4
2023-05-09T07:26:49.046Z,1.2
2023-05-09T07:28:49.947Z,1.2
2023-05-09T07:30:49.913Z,1.2
2023-05-09T07:32:50.574Z,1.1
2023-05-09T07:34:50.859Z,1.3
2023-05-09T07:36:51.205Z,1.3
2023-05-09T07:38:51.727Z,1.5
2023-05-09T07:40:51.957Z,1.4
2023-05-09T07:42:52.294Z,1.2
2023-05-09T07:44:52.693Z,1.2
2023-05-09T07:46:53.119Z,1.1
2023-05-09T07:48:53.492Z,1.3
2023-05-09T07:50:53.666Z,1.4
2023-05-09T07:52:54.030Z,1.3
2023-05-09T07:54:54.284Z,1.4
2023-05-09T07:56:54.646Z,1.1
2023-05-09T07:58:55.885Z,1.5
2023-05-09T08:00:56.007Z,1.3
2023-05-09T08:02:55.789Z,1.4
2023-05-09T08:04:55.871Z,1.5
2023-05-09T08:06:56.219Z,1.3
2023-05-09T08:08:56.672Z,1.3
2023-05-09T08:10:57.085Z,1.2
2023-05-09T08:12:57.273Z,1.3
2023-05-09T08:14:57.392Z,1.2
2023-05-09T08:16:57.712Z,1.2
2023-05-09T08:18:58.064Z,1.3
2023-05-09T08:20:58.301Z,1.5
2023-05-09T08:22:58.536Z,1.4
2023-05-09T08:24:58.968Z,1.2
2023-05-09T08:26:59.190Z,1.5
2023-05-09T08:28:59.593Z,1.7
2023-05-09T08:30:59.877Z,1.1
2023-05-09T08:33:00.163Z,1.5
2023-05-09T08:35:00.319Z,1.3
2023-05-09T08:37:01.017Z,1.4
2023-05-09T08:39:00.976Z,1.6
2023-05-09T08:41:01.574Z,1.4
2023-05-09T08:43:02.976Z,1.4
2023-05-09T08:45:06.772Z,1
2023-05-09T08:47:03.460Z,1.1
2023-05-09T08:49:05.004Z,1.2
2023-05-09T08:51:03.131Z,1.2
2023-05-09T08:53:03.198Z,1.9
2023-05-09T08:55:03.798Z,1.1
2023-05-09T08:57:03.838Z,1.1
2023-05-09T08:59:04.133Z,1.2
2023-05-09T09:01:04.189Z,3.3
2023-05-09T09:03:06.561Z,5.3
2023-05-09T09:05:05.849Z,1.4
2023-05-09T09:07:07.318Z,1.4
2023-05-09T09:09:06.717Z,1.2
2023-05-09T09:11:06.424Z,1.1
2023-05-09T09:13:07.621Z,1.2
2023-05-09T09:15:14.273Z,1.1
2023-05-09T09:17:10.094Z,1.5
2023-05-09T09:19:11.571Z,1.3
2023-05-09T09:21:10.289Z,2.1
2023-05-09T09:23:08.997Z,1.4
2023-05-09T09:25:08.733Z,1.5
2023-05-09T09:27:08.275Z,1.5
2023-05-09T09:29:08.729Z,1.3
2023-05-09T09:31:24.595Z,1.1
2023-05-09T09:33:09.416Z,1.4
2023-05-09T09:35:10.937Z,1.6
2023-05-09T09:37:21.574Z,1.5
2023-05-09T09:39:13.232Z,1.7
2023-05-09T09:41:12.191Z,1.5
2023-05-09T09:43:10.825Z,1.1
2023-05-09T09:45:12.393Z,1.3
2023-05-09T09:47:11.418Z,1.5
2023-05-09T09:49:12.760Z,1.7
2023-05-09T09:51:12.000Z,2
2023-05-09T09:53:12.433Z,1.1
2023-05-09T09:55:12.578Z,1.3
2023-05-09T09:57:32.947Z,1.1
2023-05-09T09:59:16.782Z,1.6
2023-05-09T10:01:13.523Z,1.1
2023-05-09T10:03:15.462Z,1.8
2023-05-09T10:05:19.530Z,1.9
2023-05-09T10:07:15.209Z,2.2
2023-05-09T10:09:14.682Z,1.9
2023-05-09T10:11:15.075Z,2.2
2023-05-09T10:13:15.320Z,1.7
2023-05-09T10:15:18.013Z,1.2
2023-05-09T10:17:16.931Z,1.5
2023-05-09T10:19:18.681Z,1.8
2023-05-09T10:21:16.332Z,1.4
2023-05-09T10:23:19.176Z,1.7
2023-05-09T10:25:19.803Z,1.3
2023-05-09T10:27:21.428Z,1.3
2023-05-09T10:29:23.149Z,1.5
2023-05-09T10:31:24.222Z,1.5
2023-05-09T10:33:25.424Z,1.7
2023-05-09T10:35:21.395Z,1.9
2023-05-09T10:37:20.671Z,2.3
2023-05-09T10:39:22.136Z,3
2023-05-09T10:41:20.317Z,2.9
2023-05-09T10:43:20.061Z,2.2
2023-05-09T10:45:20.868Z,1.9
2023-05-09T10:47:21.030Z,1.6
2023-05-09T10:49:21.099Z,1.4
2023-05-09T10:51:21.285Z,1.5
2023-05-09T10:53:20.857Z,1.7
2023-05-09T10:55:21.092Z,1.5
2023-05-09T10:57:21.736Z,2.2
2023-05-09T10:59:37.314Z,3.2
2023-05-09T11:01:30.903Z,1.6
2023-05-09T11:03:22.511Z,3.8
2023-05-09T11:05:22.795Z,1.7
2023-05-09T11:07:24.854Z,1.5
2023-05-09T11:09:25.762Z,1.3
2023-05-09T11:11:23.562Z,1.2
2023-05-09T11:13:24.838Z,1.8
2023-05-09T11:15:23.879Z,1.5
2023-05-09T11:17:29.631Z,1.3
2023-05-09T11:19:53.873Z,1.3
2023-05-09T11:21:24.804Z,1.1
2023-05-09T11:23:26.897Z,1.3
2023-05-09T11:25:25.909Z,1.3
2023-05-09T11:27:28.222Z,1.4
2023-05-09T11:29:26.778Z,1.4
2023-05-09T11:31:26.194Z,2.6
2023-05-09T11:33:27.938Z,1.6
2023-05-09T11:35:26.664Z,1.4
2023-05-09T11:37:30.853Z,1.2
2023-05-09T11:39:27.400Z,2.3
2023-05-09T11:41:28.607Z,1.6
2023-05-09T11:43:28.823Z,1.5
2023-05-09T11:45:30.120Z,1.5
2023-05-09T11:47:28.406Z,1.5
2023-05-09T11:49:29.382Z,1.6
2023-05-09T11:51:28.880Z,1.5
2023-05-09T11:53:29.107Z,1.5
2023-05-09T11:55:29.337Z,2.1
2023-05-09T11:57:29.915Z,2.1
2023-05-09T11:59:30.079Z,2.1
2023-05-09T12:01:30.410Z,1.5
2023-05-09T12:03:30.751Z,1.8
2023-05-09T12:05:31.641Z,1.3
2023-05-09T12:07:30.947Z,1.2
2023-05-09T12:09:32.635Z,1.3
2023-05-09T12:11:31.502Z,1.1
2023-05-09T12:13:31.817Z,2.9
2023-05-09T12:15:36.023Z,2.1
2023-05-09T12:17:32.407Z,1.3
2023-05-09T12:19:33.481Z,1.1
2023-05-09T12:21:32.974Z,1.2
2023-05-09T12:23:34.641Z,1.4
2023-05-09T12:25:33.616Z,1
2023-05-09T12:27:35.202Z,1.3
2023-05-09T12:29:34.284Z,1.7
2023-05-09T12:31:34.445Z,1.6
2023-05-09T12:33:36.401Z,1.1
2023-05-09T12:35:37.657Z,1.4
2023-05-09T12:37:35.515Z,1.3
2023-05-09T12:39:35.485Z,1.7
2023-05-09T12:41:53.652Z,2.3
2023-05-09T12:43:37.503Z,1.7
2023-05-09T12:45:38.586Z,1.5
2023-05-09T12:47:37.184Z,1.3
2023-05-09T12:49:37.155Z,1.3
2023-05-09T12:51:37.005Z,1.5
2023-05-09T12:53:39.429Z,1.5
2023-05-09T12:55:39.118Z,1.6
2023-05-09T12:57:38.550Z,1.3
2023-05-09T12:59:43.364Z,1.2
2023-05-09T13:01:38.295Z,2
2023-05-09T13:03:38.814Z,1.4
2023-05-09T13:05:38.921Z,1.3
2023-05-09T13:07:39.927Z,1.3
2023-05-09T13:09:55.202Z,1.2
2023-05-09T13:11:39.755Z,1.5
2023-05-09T13:13:40.029Z,1.8
2023-05-09T13:15:40.368Z,1.3
2023-05-09T13:17:40.486Z,1.9
2023-05-09T13:19:40.734Z,1.6
2023-05-09T13:21:41.031Z,1.4
2023-05-09T13:23:41.376Z,1.4
2023-05-09T13:25:41.563Z,1.3
2023-05-09T13:27:41.895Z,1.1
2023-05-09T13:29:42.490Z,2
2023-05-09T13:31:42.448Z,1.3
2023-05-09T13:33:42.633Z,1.4
2023-05-09T13:35:42.841Z,1.2
2023-05-09T13:37:43.325Z,1.1
2023-05-09T13:39:43.521Z,1.1
2023-05-09T13:41:43.714Z,1.2
2023-05-09T13:43:43.819Z,1.1
2023-05-09T13:45:44.142Z,1.1
2023-05-09T13:47:44.416Z,1
2023-05-09T13:49:44.699Z,1.2
2023-05-09T13:51:45.145Z,1.1
2023-05-09T13:53:45.361Z,1.2
2023-05-09T13:55:45.551Z,1
2023-05-09T13:57:45.687Z,1.3
2023-05-09T13:59:46.081Z,1.3
2023-05-09T14:01:46.477Z,1.2
2023-05-09T14:03:46.512Z,1.5
2023-05-09T14:05:46.691Z,1.2
2023-05-09T14:07:46.879Z,1.1
2023-05-09T14:09:49.096Z,1.2
2023-05-09T14:11:47.663Z,1.1
2023-05-09T14:13:47.694Z,1.1
2023-05-09T14:15:48.146Z,1.2
2023-05-09T14:17:48.122Z,1.4
2023-05-09T14:19:48.319Z,1.2
2023-05-09T14:21:48.638Z,1.2
2023-05-09T14:23:48.960Z,1.3
2023-05-09T14:25:49.155Z,2
2023-05-09T14:27:49.329Z,1.4
2023-05-09T14:29:50.073Z,1.7
2023-05-09T14:31:49.934Z,1.8
2023-05-09T14:33:50.049Z,4.3
2023-05-09T14:35:50.361Z,2.4
2023-05-09T14:37:50.596Z,2.1
2023-05-09T14:39:50.898Z,2
2023-05-09T14:41:51.163Z,1.3
2023-05-09T14:43:51.491Z,1.4
2023-05-09T14:45:51.586Z,1.5
2023-05-09T14:47:51.926Z,1.6
2023-05-09T14:49:52.538Z,1.2
2023-05-09T14:51:52.500Z,1.3
2023-05-09T14:53:52.627Z,1.7
2023-05-09T14:55:52.825Z,2.6
2023-05-09T14:57:53.229Z,1.9
2023-05-09T14:59:53.412Z,1.7
2023-05-09T15:01:53.816Z,1.6
2023-05-09T15:03:53.926Z,1.5
2023-05-09T15:05:54.117Z,2.1
2023-05-09T15:07:54.423Z,1.6
2023-05-09T15:09:54.711Z,2
2023-05-09T15:11:55.084Z,1.4
2023-05-09T15:13:55.146Z,1.4
2023-05-09T15:15:55.292Z,1.4
2023-05-09T15:17:55.581Z,1.1
2023-05-09T15:19:55.921Z,1.4
2023-05-09T15:21:56.198Z,1.2
2023-05-09T15:23:56.326Z,1.6
2023-05-09T15:25:56.621Z,1.7
2023-05-09T15:27:56.747Z,1.5
2023-05-09T15:29:57.884Z,1.5
2023-05-09T15:31:57.403Z,1.8
2023-05-09T15:33:57.422Z,1.5
2023-05-09T15:35:58.717Z,1.8
2023-05-09T15:37:58.017Z,2.5
2023-05-09T15:39:58.235Z,1.8
2023-05-09T15:41:58.422Z,1.6
2023-05-09T15:43:58.654Z,1.3
2023-05-09T15:45:58.874Z,1.4
2023-05-09T15:47:59.212Z,1.5
2023-05-09T15:49:59.301Z,1.4
2023-05-09T15:51:59.850Z,1.3
2023-05-09T15:53:59.768Z,1.5
2023-05-09T15:56:00.047Z,1.6
2023-05-09T15:58:00.387Z,1.6
2023-05-09T16:00:00.636Z,1.9
2023-05-09T16:02:00.818Z,1.6
2023-05-09T16:04:01.184Z,2.2
2023-05-09T16:06:01.469Z,2
2023-05-09T16:08:01.322Z,2.2
2023-05-09T16:10:01.949Z,2
2023-05-09T16:12:01.909Z,2.1
2023-05-09T16:14:02.246Z,2.4
2023-05-09T16:16:02.384Z,2.3
2023-05-09T16:18:02.524Z,2.2
2023-05-09T16:20:03.170Z,3
2023-05-09T16:22:03.100Z,2.6
2023-05-09T16:24:03.478Z,3.3
2023-05-09T16:26:03.409Z,4.1
2023-05-09T16:28:04.027Z,3.6
2023-05-09T16:30:05.549Z,10.3
2023-05-09T16:32:04.596Z,13.4
2023-05-09T16:34:04.291Z,31.2
2023-05-09T16:36:05.194Z,36.8
2023-05-09T16:38:04.669Z,20.4
2023-05-09T16:40:05.997Z,18.6
2023-05-09T16:42:05.313Z,13.7
2023-05-09T16:44:05.378Z,16.2
2023-05-09T16:46:06.252Z,13.1
2023-05-09T16:48:06.369Z,11
2023-05-09T16:50:06.679Z,9.7
2023-05-09T16:52:06.602Z,8.4
2023-05-09T16:54:06.645Z,7.9
2023-05-09T16:56:06.767Z,7.1
2023-05-09T16:58:06.956Z,7.2
2023-05-09T17:00:09.246Z,6.6
2023-05-09T17:02:07.859Z,6.8
2023-05-09T17:04:08.714Z,7.3
2023-05-09T17:06:08.060Z,8.8
2023-05-09T17:08:07.963Z,8.3
2023-05-09T17:10:08.911Z,14.7
2023-05-09T17:12:08.578Z,15.4
2023-05-09T17:14:08.519Z,12.1
2023-05-09T17:16:08.949Z,12.3
2023-05-09T17:18:09.218Z,11
2023-05-09T17:20:10.308Z,10.5
2023-05-09T17:22:09.763Z,10
2023-05-09T17:24:10.070Z,10.8
2023-05-09T17:26:09.797Z,10
2023-05-09T17:28:09.877Z,11.5
2023-05-09T17:30:10.863Z,8.2
2023-05-09T17:32:11.382Z,5.1
2023-05-09T17:34:10.396Z,6
2023-05-09T17:36:10.767Z,5.5
2023-05-09T17:38:10.884Z,5.8
2023-05-09T17:40:11.580Z,6.1
2023-05-09T17:42:12.362Z,6.8
2023-05-09T17:44:11.901Z,7.7
2023-05-09T17:46:11.965Z,7.3
2023-05-09T17:48:11.883Z,5.7
2023-05-09T17:50:12.407Z,5.7
2023-05-09T17:52:12.381Z,5.4
2023-05-09T17:54:12.416Z,5.8
2023-05-09T17:56:12.654Z,4.8
2023-05-09T17:58:12.777Z,4.9
2023-05-09T18:00:14.451Z,5.1
2023-05-09T18:02:13.232Z,4.8
2023-05-09T18:04:13.442Z,5.3
2023-05-09T18:06:13.588Z,4.7
2023-05-09T18:08:13.652Z,4.5
2023-05-09T18:10:14.161Z,4.8
2023-05-09T18:12:14.144Z,4.8
2023-05-09T18:14:14.284Z,4.5
2023-05-09T18:16:14.812Z,4.5
2023-05-09T18:18:15.012Z,10.6
2023-05-09T18:20:15.128Z,6.3
2023-05-09T18:22:15.831Z,13.5
2023-05-09T18:24:16.993Z,7.7
2023-05-09T18:26:15.329Z,31.9
2023-05-09T18:28:16.416Z,30.7
2023-05-09T18:30:17.659Z,23.8
2023-05-09T18:32:18.531Z,25.5
2023-05-09T18:34:16.731Z,23.9
2023-05-09T18:36:16.215Z,18.8
2023-05-09T18:38:16.344Z,13.4
2023-05-09T18:40:17.271Z,10.6
2023-05-09T18:42:16.686Z,7.6
2023-05-09T18:44:16.787Z,6.9
2023-05-09T18:46:18.108Z,4
2023-05-09T18:48:17.127Z,3.9
2023-05-09T18:50:17.677Z,3.5
2023-05-09T18:52:17.567Z,3.3
2023-05-09T18:54:17.582Z,4
2023-05-09T18:56:18.562Z,3.2
2023-05-09T18:58:17.955Z,4.9
2023-05-09T19:00:18.269Z,4.5
2023-05-09T19:02:18.616Z,4.3
2023-05-09T19:04:18.695Z,3.7
2023-05-09T19:06:18.928Z,3.5
2023-05-09T19:08:18.753Z,3.6
2023-05-09T19:10:18.892Z,4.1
2023-05-09T19:12:18.946Z,3.7
2023-05-09T19:14:19.183Z,4.6
2023-05-09T19:16:19.393Z,3.7
2023-05-09T19:18:19.490Z,3.8
2023-05-09T19:20:19.747Z,3.5
2023-05-09T19:22:19.742Z,3.3
2023-05-09T19:24:19.837Z,3.7
2023-05-09T19:26:20.206Z,4.4
2023-05-09T19:28:20.245Z,3.5
2023-05-09T19:30:20.478Z,4.4
2023-05-09T19:32:20.401Z,5.2
2023-05-09T19:34:21.064Z,5
2023-05-09T19:36:20.681Z,4.2
2023-05-09T19:38:20.861Z,5.6
2023-05-09T19:40:21.008Z,3.5
2023-05-09T19:42:21.128Z,3.4
2023-05-09T19:44:21.748Z,2.8
2023-05-09T19:46:21.559Z,3.2
2023-05-09T19:48:21.557Z,3.1
2023-05-09T19:50:22.498Z,3
2023-05-09T19:52:21.895Z,3.1
2023-05-09T19:54:25.104Z,2.9
2023-05-09T19:56:22.162Z,2.8
2023-05-09T19:58:22.225Z,3.1
2023-05-09T20:00:22.538Z,3.6
2023-05-09T20:02:22.673Z,3.1
2023-05-09T20:04:22.664Z,2.7
2023-05-09T20:06:22.862Z,2.7
2023-05-09T20:08:22.914Z,3.4
2023-05-09T20:10:23.549Z,3.5
2023-05-09T20:12:23.165Z,4.1
2023-05-09T20:14:23.257Z,4.2
2023-05-09T20:16:23.452Z,3.9
2023-05-09T20:18:23.564Z,5.3
2023-05-09T20:20:23.692Z,4.3
2023-05-09T20:22:23.752Z,6.3
2023-05-09T20:24:23.973Z,6.7
2023-05-09T20:26:25.294Z,6.8
2023-05-09T20:28:24.104Z,6.9
2023-05-09T20:30:24.237Z,7.1
2023-05-09T20:32:24.400Z,6.4
2023-05-09T20:34:24.453Z,6.4
2023-05-09T20:36:24.856Z,5.7
2023-05-09T20:38:24.714Z,4.5
2023-05-09T20:40:24.795Z,5.1
2023-05-09T20:42:24.930Z,4.9
2023-05-09T20:44:25.068Z,5.8
2023-05-09T20:46:25.189Z,5.6
2023-05-09T20:48:25.238Z,4.8
2023-05-09T20:50:25.416Z,4.5
2023-05-09T20:52:25.568Z,4
2023-05-09T20:54:25.644Z,3.8
2023-05-09T20:56:26.050Z,3.6
2023-05-09T20:58:25.923Z,3.9
2023-05-09T21:00:26.072Z,3.4
2023-05-09T21:02:26.232Z,3
2023-05-09T21:04:26.197Z,3.6
2023-05-09T21:06:26.411Z,3.2
2023-05-09T21:08:26.526Z,3.4
2023-05-09T21:10:26.651Z,3.2
2023-05-09T21:12:26.701Z,3.6
2023-05-09T21:14:26.859Z,4
2023-05-09T21:16:27.025Z,3.8
2023-05-09T21:18:27.055Z,4
2023-05-09T21:20:27.338Z,3.5
2023-05-09T21:22:27.294Z,4
2023-05-09T21:24:27.479Z,3.3
2023-05-09T21:26:27.782Z,4.1
2023-05-09T21:28:27.667Z,4.9
2023-05-09T21:30:27.736Z,3.8
2023-05-09T21:32:27.790Z,3.8
2023-05-09T21:34:27.912Z,3.8
2023-05-09T21:36:28.135Z,3.5
2023-05-09T21:38:28.294Z,3.3
2023-05-09T21:40:28.277Z,3.9
2023-05-09T21:42:28.424Z,3.9
2023-05-09T21:44:28.444Z,3.7
2023-05-09T21:46:31.429Z,3.6
2023-05-09T21:48:28.849Z,3.4
2023-05-09T21:50:28.875Z,3.2
2023-05-09T21:52:28.888Z,3.3
2023-05-09T21:54:28.960Z,3.3
2023-05-09T21:56:29.198Z,3.2
2023-05-09T21:58:29.211Z,3.6
2023-05-09T22:00:29.325Z,3.1
2023-05-09T22:02:29.466Z,3.2
2023-05-09T22:04:29.560Z,3.1
2023-05-09T22:06:29.925Z,3.2
2023-05-09T22:08:29.869Z,2.9
2023-05-09T22:10:29.982Z,3.1
2023-05-09T22:12:30.189Z,3.1
2023-05-09T22:14:29.971Z,2.9
2023-05-09T22:16:30.184Z,2.8
2023-05-09T22:18:30.675Z,3.5
2023-05-09T22:20:30.347Z,3.3
2023-05-09T22:22:30.411Z,3.2
2023-05-09T22:24:30.595Z,3
2023-05-09T22:26:30.711Z,3.1
2023-05-09T22:28:30.776Z,3.2
2023-05-09T22:30:30.936Z,3
2023-05-09T22:32:30.978Z,3.1
2023-05-09T22:34:30.986Z,3.1
2023-05-09T22:36:31.285Z,2.9
2023-05-09T22:38:31.428Z,3
2023-05-09T22:40:31.403Z,3.1
2023-05-09T22:42:31.451Z,2.8
2023-05-09T22:44:31.442Z,2.9
2023-05-09T22:46:31.703Z,3
2023-05-09T22:48:31.762Z,2.8
2023-05-09T22:50:31.844Z,3.3
2023-05-09T22:52:31.878Z,2.9
2023-05-09T22:54:32.133Z,2.8
2023-05-09T22:56:32.145Z,2.7
2023-05-09T22:58:32.287Z,2.9
2023-05-09T23:00:32.419Z,3.3
2023-05-09T23:02:32.574Z,3.6
2023-05-09T23:04:32.496Z,3
2023-05-09T23:06:32.741Z,3.1
2023-05-09T23:08:33.341Z,3.2
2023-05-09T23:10:32.810Z,2.9
2023-05-09T23:12:32.880Z,3
2023-05-09T23:14:32.937Z,3
2023-05-09T23:16:33.669Z,3.1
2023-05-09T23:18:33.161Z,2.9
2023-05-09T23:20:33.244Z,3.2
2023-05-09T23:22:33.315Z,3.3
2023-05-09T23:24:33.829Z,2.9
2023-05-09T23:26:33.546Z,2.9
2023-05-09T23:28:33.580Z,3.5
2023-05-09T23:30:33.721Z,4.4
2023-05-09T23:32:33.809Z,3.2
2023-05-09T23:34:34.005Z,3.4
2023-05-09T23:36:33.991Z,2.8
2023-05-09T23:38:35.257Z,3.4
2023-05-09T23:40:34.297Z,3.2
2023-05-09T23:42:34.296Z,2.9
2023-05-09T23:44:34.587Z,2.8
2023-05-09T23:46:34.778Z,3.4
2023-05-09T23:48:34.562Z,3.3
2023-05-09T23:50:34.784Z,3.2
2023-05-09T23:52:34.872Z,3.1
2023-05-09T23:54:34.962Z,3.4
2023-05-09T23:56:34.913Z,3
2023-05-09T23:58:35.048Z,3.1
